createdAt,value
2023-03-26T00:01:15.564Z,3.85
2023-03-26T00:03:44.925Z,3.85
2023-03-26T00:06:14.189Z,3.89
2023-03-26T00:08:42.713Z,3.80
2023-03-26T00:11:11.423Z,3.80
2023-03-26T00:13:38.182Z,3.81
2023-03-26T00:16:05.297Z,3.80
2023-03-26T00:18:32.164Z,3.78
2023-03-26T00:21:00.095Z,3.79
2023-03-26T00:23:28.260Z,3.78
2023-03-26T00:25:56.139Z,3.80
2023-03-26T00:28:24.292Z,3.82
2023-03-26T00:30:58.456Z,3.80
2023-03-26T00:33:25.348Z,3.80
2023-03-26T00:35:54.385Z,3.78
2023-03-26T00:38:22.473Z,3.79
2023-03-26T00:40:51.062Z,3.84
2023-03-26T00:43:19.325Z,3.86
2023-03-26T00:45:57.439Z,3.90
2023-03-26T00:48:34.545Z,3.69
2023-03-26T00:51:12.154Z,3.83
2023-03-26T00:53:39.017Z,3.70
2023-03-26T00:56:07.140Z,3.73
2023-03-26T00:58:34.109Z,3.66
2023-03-26T01:01:03.849Z,3.79
2023-03-26T01:03:35.459Z,3.74
2023-03-26T01:06:08.165Z,3.56
2023-03-26T01:08:42.139Z,3.39
2023-03-26T01:11:21.874Z,3.36
2023-03-26T01:13:52.395Z,3.53
2023-03-26T01:16:25.284Z,3.63
2023-03-26T01:18:52.776Z,3.66
2023-03-26T01:21:29.982Z,3.67
2023-03-26T01:24:05.209Z,3.62
2023-03-26T01:26:38.724Z,3.42
2023-03-26T01:29:10.241Z,3.56
2023-03-26T01:31:47.432Z,3.72
2023-03-26T01:34:22.308Z,3.77
2023-03-26T01:37:07.958Z,3.83
2023-03-26T01:40:05.941Z,3.89
2023-03-26T01:42:55.531Z,3.95
2023-03-26T01:45:28.061Z,3.91
2023-03-26T01:47:56.149Z,3.95
2023-03-26T01:50:22.893Z,3.78
2023-03-26T01:52:49.676Z,3.90
2023-03-26T01:55:17.027Z,3.79
2023-03-26T01:58:02.629Z,3.70
2023-03-26T02:00:33.661Z,3.76
2023-03-26T02:03:31.575Z,3.79
2023-03-26T02:06:15.702Z,3.90
2023-03-26T02:08:48.377Z,3.79
2023-03-26T02:11:16.639Z,3.73
2023-03-26T02:13:46.196Z,3.76
2023-03-26T02:16:16.393Z,3.82
2023-03-26T02:18:51.324Z,3.87
2023-03-26T02:21:21.661Z,3.89
2023-03-26T02:23:50.754Z,3.94
2023-03-26T02:26:19.899Z,3.95
2023-03-26T02:28:46.605Z,4.00
2023-03-26T02:31:13.974Z,4.04
2023-03-26T02:33:40.718Z,4.04
2023-03-26T02:36:08.547Z,3.93
2023-03-26T02:38:35.353Z,3.97
2023-03-26T02:41:02.904Z,3.96
2023-03-26T02:43:30.151Z,3.98
2023-03-26T02:45:57.514Z,4.01
2023-03-26T02:48:24.308Z,3.85
2023-03-26T02:50:54.333Z,3.69
2023-03-26T02:53:21.902Z,3.32
2023-03-26T02:55:48.497Z,3.32
2023-03-26T02:58:18.083Z,3.48
2023-03-26T03:00:46.803Z,3.57
2023-03-26T03:03:14.189Z,3.47
2023-03-26T03:05:43.156Z,3.54
2023-03-26T03:08:10.385Z,3.65
2023-03-26T03:10:37.797Z,3.66
2023-03-26T03:13:07.782Z,3.65
2023-03-26T03:15:35.063Z,3.76
2023-03-26T03:18:02.448Z,3.58
2023-03-26T03:20:30.343Z,3.64
2023-03-26T03:22:57.063Z,3.72
2023-03-26T03:25:25.973Z,3.76
2023-03-26T03:27:53.857Z,3.63
2023-03-26T03:30:20.720Z,3.64
2023-03-26T03:32:47.674Z,3.71
2023-03-26T03:35:14.389Z,3.77
2023-03-26T03:37:41.211Z,3.86
2023-03-26T03:40:10.735Z,3.92
2023-03-26T03:42:37.950Z,3.93
2023-03-26T03:45:06.568Z,3.90
2023-03-26T03:47:33.657Z,3.97
2023-03-26T03:50:00.575Z,4.06
2023-03-26T03:52:28.125Z,3.98
2023-03-26T03:54:57.620Z,3.99
2023-03-26T03:57:24.299Z,4.07
2023-03-26T03:59:50.916Z,4.04
2023-03-26T04:02:26.087Z,4.05
2023-03-26T04:04:53.216Z,4.07
2023-03-26T04:07:20.518Z,4.17
2023-03-26T04:09:47.200Z,4.24
2023-03-26T04:12:14.036Z,4.23
2023-03-26T04:14:40.757Z,4.25
2023-03-26T04:17:07.551Z,4.22
2023-03-26T04:19:34.751Z,4.25
2023-03-26T04:22:02.319Z,4.05
2023-03-26T04:24:29.904Z,3.89
2023-03-26T04:26:58.261Z,3.83
2023-03-26T04:29:27.933Z,3.93
2023-03-26T04:32:06.295Z,4.05
2023-03-26T04:34:34.241Z,4.08
2023-03-26T04:37:03.863Z,4.14
2023-03-26T04:39:34.112Z,4.17
2023-03-26T04:42:00.765Z,4.29
2023-03-26T04:44:30.346Z,4.38
2023-03-26T04:46:57.015Z,4.26
2023-03-26T04:49:23.700Z,3.73
2023-03-26T04:51:50.675Z,3.83
2023-03-26T04:54:22.210Z,4.06
2023-03-26T04:56:58.017Z,4.20
2023-03-26T04:59:34.600Z,4.27
2023-03-26T05:02:02.974Z,4.38
2023-03-26T05:04:29.738Z,4.45
2023-03-26T05:06:58.342Z,4.46
2023-03-26T05:09:25.994Z,4.53
2023-03-26T05:11:52.839Z,4.55
2023-03-26T05:14:19.798Z,4.61
2023-03-26T05:16:48.527Z,4.67
2023-03-26T05:19:15.241Z,4.65
2023-03-26T05:21:41.857Z,4.64
2023-03-26T05:24:08.597Z,4.49
2023-03-26T05:26:36.821Z,4.40
2023-03-26T05:29:05.084Z,4.20
2023-03-26T05:31:31.783Z,4.16
2023-03-26T05:34:00.648Z,4.24
2023-03-26T05:36:28.419Z,4.23
2023-03-26T05:38:55.309Z,4.25
2023-03-26T05:41:21.916Z,4.24
2023-03-26T05:43:49.118Z,4.19
2023-03-26T05:46:16.644Z,4.15
2023-03-26T05:48:43.443Z,4.33
2023-03-26T05:51:10.237Z,4.48
2023-03-26T05:53:36.921Z,4.57
2023-03-26T05:56:04.262Z,4.56
2023-03-26T05:58:34.254Z,4.59
2023-03-26T06:01:06.065Z,4.70
2023-03-26T06:03:34.453Z,4.52
2023-03-26T06:06:01.372Z,4.60
2023-03-26T06:08:28.142Z,4.51
2023-03-26T06:10:59.860Z,4.50
2023-03-26T06:13:26.621Z,4.57
2023-03-26T06:15:53.419Z,4.63
2023-03-26T06:18:20.672Z,4.47
2023-03-26T06:20:47.277Z,4.56
2023-03-26T06:23:13.900Z,4.61
2023-03-26T06:25:41.346Z,4.66
2023-03-26T06:28:08.090Z,4.74
2023-03-26T06:30:34.799Z,4.77
2023-03-26T06:33:01.453Z,4.75
2023-03-26T06:35:29.917Z,4.70
2023-03-26T06:37:57.701Z,4.78
2023-03-26T06:40:25.071Z,4.72
2023-03-26T06:43:07.025Z,4.78
2023-03-26T06:45:37.567Z,4.70
2023-03-26T06:48:04.843Z,4.86
2023-03-26T06:50:32.363Z,4.91
2023-03-26T06:52:59.104Z,4.93
2023-03-26T06:55:26.619Z,4.73
2023-03-26T06:57:55.310Z,4.70
2023-03-26T07:00:22.117Z,4.65
2023-03-26T07:02:48.903Z,4.68
2023-03-26T07:05:15.898Z,4.75
2023-03-26T07:07:46.659Z,4.85
2023-03-26T07:10:14.479Z,4.98
2023-03-26T07:12:42.273Z,5.08
2023-03-26T07:15:10.401Z,4.89
2023-03-26T07:17:37.758Z,4.93
2023-03-26T07:20:08.260Z,4.97
2023-03-26T07:22:35.694Z,4.92
2023-03-26T07:25:02.982Z,4.92
2023-03-26T07:27:56.209Z,4.84
2023-03-26T07:30:36.453Z,4.77
2023-03-26T07:33:34.954Z,4.83
2023-03-26T07:36:04.789Z,4.89
2023-03-26T07:38:49.718Z,4.93
2023-03-26T07:41:42.008Z,5.07
2023-03-26T07:44:29.734Z,4.95
2023-03-26T07:46:57.210Z,4.95
2023-03-26T07:49:24.110Z,4.85
2023-03-26T07:51:51.102Z,4.90
2023-03-26T07:54:18.076Z,4.86
2023-03-26T07:56:59.510Z,4.89
2023-03-26T07:59:40.970Z,4.98
2023-03-26T08:02:41.796Z,4.96
2023-03-26T08:05:18.979Z,5.13
2023-03-26T08:08:38.345Z,5.10
2023-03-26T08:11:12.752Z,5.17
2023-03-26T08:14:08.507Z,5.38
2023-03-26T08:16:41.230Z,5.45
2023-03-26T08:19:13.804Z,5.91
2023-03-26T08:22:12.040Z,5.87
2023-03-26T08:25:04.241Z,5.74
2023-03-26T08:27:40.278Z,5.98
2023-03-26T08:30:21.848Z,5.94
2023-03-26T08:33:00.821Z,6.08
2023-03-26T08:35:28.505Z,5.98
2023-03-26T08:37:55.356Z,5.74
2023-03-26T08:40:58.704Z,5.58
2023-03-26T08:43:59.347Z,5.46
2023-03-26T08:46:57.308Z,5.31
2023-03-26T08:50:25.560Z,5.35
2023-03-26T08:53:46.558Z,5.29
2023-03-26T08:56:53.792Z,5.51
2023-03-26T08:59:57.706Z,5.74
2023-03-26T09:02:55.852Z,5.64
2023-03-26T09:05:25.839Z,5.63
2023-03-26T09:08:07.684Z,5.74
2023-03-26T09:10:37.318Z,6.09
2023-03-26T09:13:09.939Z,6.40
2023-03-26T09:16:01.225Z,6.62
2023-03-26T09:18:46.216Z,6.59
2023-03-26T09:21:18.728Z,6.71
2023-03-26T09:24:03.126Z,6.86
2023-03-26T09:26:57.315Z,7.04
2023-03-26T09:29:48.496Z,7.34
2023-03-26T09:32:51.048Z,7.03
2023-03-26T09:35:42.574Z,7.29
2023-03-26T09:38:46.115Z,7.18
2023-03-26T09:41:22.237Z,7.35
2023-03-26T09:43:51.973Z,7.19
2023-03-26T09:46:26.661Z,7.53
2023-03-26T09:49:11.871Z,8.13
2023-03-26T09:51:41.405Z,8.70
2023-03-26T09:54:29.591Z,8.71
2023-03-26T09:57:15.098Z,8.48
2023-03-26T10:00:13.126Z,8.94
2023-03-26T10:03:14.117Z,9.00
2023-03-26T10:06:07.043Z,11.31
2023-03-26T10:08:47.393Z,11.10
2023-03-26T10:11:35.422Z,12.02
2023-03-26T10:14:32.416Z,11.28
2023-03-26T10:17:08.060Z,12.15
2023-03-26T10:20:02.463Z,14.45
2023-03-26T10:22:50.294Z,17.88
2023-03-26T10:25:29.273Z,20.35
2023-03-26T10:28:22.513Z,20.27
2023-03-26T10:31:06.068Z,15.93
2023-03-26T10:33:41.812Z,14.47
2023-03-26T10:36:27.643Z,13.16
2023-03-26T10:39:36.371Z,14.33
2023-03-26T10:42:35.350Z,13.83
2023-03-26T10:45:21.435Z,13.38
2023-03-26T10:47:55.320Z,14.30
2023-03-26T10:50:49.598Z,15.22
2023-03-26T10:53:34.913Z,16.67
2023-03-26T10:56:42.833Z,17.65
2023-03-26T10:59:13.201Z,15.72
2023-03-26T11:01:54.820Z,14.99
2023-03-26T11:04:33.469Z,13.34
2023-03-26T11:07:16.448Z,11.59
2023-03-26T11:10:13.822Z,11.44
2023-03-26T11:12:48.997Z,11.68
2023-03-26T11:15:21.860Z,11.33
2023-03-26T11:17:57.714Z,10.67
2023-03-26T11:20:44.791Z,10.79
2023-03-26T11:23:33.928Z,12.16
2023-03-26T11:26:27.466Z,12.57
2023-03-26T11:29:31.297Z,11.40
2023-03-26T11:32:04.776Z,10.19
2023-03-26T11:35:14.343Z,10.64
2023-03-26T11:37:48.521Z,10.66
2023-03-26T11:40:24.168Z,10.43
2023-03-26T11:42:56.860Z,9.96
2023-03-26T11:45:27.261Z,9.87
2023-03-26T11:48:04.234Z,10.00
2023-03-26T11:50:35.699Z,10.29
2023-03-26T11:53:12.455Z,10.20
2023-03-26T11:55:48.234Z,10.42
2023-03-26T11:58:24.255Z,10.77
2023-03-26T12:00:54.720Z,10.61
2023-03-26T12:03:21.647Z,11.05
2023-03-26T12:05:57.963Z,10.94
2023-03-26T12:08:38.025Z,10.59
2023-03-26T12:11:10.298Z,10.57
2023-03-26T12:13:36.897Z,10.26
2023-03-26T12:16:18.352Z,9.55
2023-03-26T12:18:47.618Z,9.64
2023-03-26T12:21:19.318Z,9.57
2023-03-26T12:23:58.084Z,8.87
2023-03-26T12:26:42.709Z,8.83
2023-03-26T12:29:15.337Z,9.28
2023-03-26T12:32:13.208Z,9.18
2023-03-26T12:34:41.393Z,9.21
2023-03-26T12:37:35.395Z,9.50
2023-03-26T12:40:29.172Z,10.28
2023-03-26T12:44:53.355Z,10.85
2023-03-26T12:45:44.950Z,10.47
2023-03-26T12:48:30.634Z,11.24
2023-03-26T12:51:19.522Z,10.22
2023-03-26T12:54:23.611Z,9.65
2023-03-26T12:57:12.231Z,9.04
2023-03-26T12:59:52.081Z,8.50
2023-03-26T13:02:53.106Z,9.26
2023-03-26T13:05:37.890Z,9.76
2023-03-26T13:08:07.937Z,9.45
2023-03-26T13:11:22.494Z,8.98
2023-03-26T13:14:01.997Z,10.10
2023-03-26T13:16:53.125Z,10.59
2023-03-26T13:19:22.671Z,10.18
2023-03-26T13:22:15.193Z,9.77
2023-03-26T13:25:13.807Z,9.46
2023-03-26T13:28:19.204Z,9.82
2023-03-26T13:31:06.924Z,11.67
2023-03-26T13:33:57.700Z,11.77
2023-03-26T13:36:39.327Z,11.14
2023-03-26T13:39:27.295Z,11.56
2023-03-26T13:42:15.684Z,12.02
2023-03-26T13:44:48.398Z,11.96
2023-03-26T13:47:22.300Z,11.80
2023-03-26T13:49:52.861Z,11.77
2023-03-26T13:52:26.035Z,12.20
2023-03-26T13:55:24.712Z,11.41
2023-03-26T13:58:14.361Z,11.11
2023-03-26T14:01:17.838Z,11.25
2023-03-26T14:03:51.986Z,11.03
2023-03-26T14:07:00.471Z,11.22
2023-03-26T14:09:45.882Z,11.09
2023-03-26T14:12:22.046Z,11.48
2023-03-26T14:14:54.799Z,12.08
2023-03-26T14:17:28.557Z,11.49
2023-03-26T14:20:05.245Z,10.81
2023-03-26T14:22:37.035Z,10.27
2023-03-26T14:25:22.163Z,10.35
2023-03-26T14:28:20.367Z,10.41
2023-03-26T14:31:12.417Z,10.30
2023-03-26T14:33:51.681Z,10.35
2023-03-26T14:36:59.120Z,9.60
2023-03-26T14:40:14.786Z,9.77
2023-03-26T14:42:46.637Z,9.82
2023-03-26T14:45:48.420Z,9.94
2023-03-26T14:48:27.104Z,9.83
2023-03-26T14:51:22.712Z,9.54
2023-03-26T14:53:57.005Z,9.47
2023-03-26T14:56:45.067Z,8.93
2023-03-26T14:59:42.134Z,8.53
2023-03-26T15:02:27.653Z,8.48
2023-03-26T15:04:54.368Z,8.25
2023-03-26T15:07:58.450Z,8.12
2023-03-26T15:11:02.621Z,7.77
2023-03-26T15:13:42.077Z,7.29
2023-03-26T15:16:24.287Z,7.68
2023-03-26T15:19:10.080Z,7.30
2023-03-26T15:21:42.497Z,7.49
2023-03-26T15:24:27.604Z,7.12
2023-03-26T15:27:29.141Z,7.33
2023-03-26T15:30:12.943Z,7.13
2023-03-26T15:32:57.881Z,7.28
2023-03-26T15:36:01.004Z,7.46
2023-03-26T15:38:42.515Z,7.43
2023-03-26T15:41:34.689Z,6.61
2023-03-26T15:44:23.720Z,7.19
2023-03-26T15:47:17.414Z,7.04
2023-03-26T15:50:27.003Z,6.20
2023-03-26T15:53:26.162Z,7.10
2023-03-26T15:56:08.007Z,7.06
2023-03-26T15:59:06.201Z,7.13
2023-03-26T16:01:45.510Z,6.95
2023-03-26T16:04:50.172Z,6.99
2023-03-26T16:07:47.224Z,7.54
2023-03-26T16:10:38.344Z,6.79
2023-03-26T16:13:17.440Z,6.88
2023-03-26T16:15:52.767Z,7.20
2023-03-26T16:18:27.907Z,6.77
2023-03-26T16:21:04.106Z,7.18
2023-03-26T16:23:34.743Z,7.22
2023-03-26T16:26:27.608Z,7.62
2023-03-26T16:28:54.914Z,7.57
2023-03-26T16:31:37.901Z,7.63
2023-03-26T16:34:07.158Z,7.54
2023-03-26T16:36:36.894Z,7.21
2023-03-26T16:39:07.444Z,6.77
2023-03-26T16:41:40.064Z,6.85
2023-03-26T16:44:18.405Z,6.67
2023-03-26T16:46:48.097Z,6.86
2023-03-26T16:49:21.014Z,6.59
2023-03-26T16:52:20.521Z,6.75
2023-03-26T16:54:50.216Z,6.76
2023-03-26T16:57:41.584Z,6.87
2023-03-26T17:00:16.413Z,6.74
2023-03-26T17:03:13.005Z,6.83
2023-03-26T17:05:58.064Z,7.05
2023-03-26T17:08:46.920Z,7.17
2023-03-26T17:11:41.342Z,6.91
2023-03-26T17:14:26.706Z,7.04
2023-03-26T17:17:02.599Z,7.10
2023-03-26T17:19:56.921Z,6.69
2023-03-26T17:22:51.774Z,6.60
2023-03-26T17:25:24.504Z,6.52
2023-03-26T17:28:29.352Z,6.23
2023-03-26T17:31:18.419Z,6.16
2023-03-26T17:33:45.573Z,6.22
2023-03-26T17:36:12.367Z,6.05
2023-03-26T17:38:39.076Z,6.14
2023-03-26T17:41:14.768Z,6.17
2023-03-26T17:43:50.909Z,6.14
2023-03-26T17:46:39.077Z,5.97
2023-03-26T17:49:11.879Z,6.02
2023-03-26T17:52:00.982Z,6.07
2023-03-26T17:54:47.365Z,6.03
2023-03-26T17:57:40.203Z,5.74
2023-03-26T18:00:09.371Z,5.69
2023-03-26T18:02:43.902Z,5.76
2023-03-26T18:05:14.745Z,5.76
2023-03-26T18:07:50.736Z,5.80
2023-03-26T18:10:43.458Z,5.68
2023-03-26T18:13:40.892Z,5.63
2023-03-26T18:16:27.769Z,5.43
2023-03-26T18:18:58.964Z,5.29
2023-03-26T18:21:34.609Z,5.39
2023-03-26T18:24:02.965Z,5.49
2023-03-26T18:26:38.462Z,5.56
2023-03-26T18:29:25.640Z,5.52
2023-03-26T18:32:01.048Z,5.45
2023-03-26T18:34:31.802Z,5.64
2023-03-26T18:37:08.444Z,5.68
2023-03-26T18:39:35.281Z,5.81
2023-03-26T18:42:02.067Z,5.83
2023-03-26T18:44:28.865Z,5.71
2023-03-26T18:46:55.729Z,5.73
2023-03-26T18:49:24.078Z,5.39
2023-03-26T18:51:57.251Z,5.40
2023-03-26T18:54:29.917Z,5.32
2023-03-26T18:56:58.811Z,4.87
2023-03-26T18:59:35.197Z,5.09
2023-03-26T19:02:14.407Z,4.82
2023-03-26T19:04:46.152Z,4.88
2023-03-26T19:07:16.660Z,4.86
2023-03-26T19:09:43.945Z,4.86
2023-03-26T19:12:38.539Z,4.79
2023-03-26T19:15:07.442Z,4.84
2023-03-26T19:17:41.322Z,4.88
2023-03-26T19:20:39.244Z,4.87
2023-03-26T19:23:09.274Z,4.75
2023-03-26T19:25:42.207Z,4.69
2023-03-26T19:28:27.966Z,4.81
2023-03-26T19:30:57.844Z,4.96
2023-03-26T19:33:33.896Z,4.76
2023-03-26T19:36:13.348Z,4.76
2023-03-26T19:38:52.500Z,4.73
2023-03-26T19:41:19.159Z,4.57
2023-03-26T19:43:55.888Z,4.70
2023-03-26T19:46:24.101Z,4.71
2023-03-26T19:48:55.924Z,4.64
2023-03-26T19:51:34.829Z,4.52
2023-03-26T19:54:15.945Z,4.66
2023-03-26T19:56:43.585Z,4.59
2023-03-26T19:59:10.373Z,4.66
2023-03-26T20:01:37.554Z,4.50
2023-03-26T20:04:06.797Z,4.45
2023-03-26T20:06:43.721Z,4.48
2023-03-26T20:09:13.952Z,4.27
2023-03-26T20:11:41.094Z,4.08
2023-03-26T20:14:17.136Z,4.21
2023-03-26T20:16:45.330Z,4.26
2023-03-26T20:19:14.211Z,4.25
2023-03-26T20:21:41.782Z,4.29
2023-03-26T20:24:17.363Z,4.29
2023-03-26T20:26:46.094Z,4.22
2023-03-26T20:29:13.750Z,4.19
2023-03-26T20:31:44.228Z,4.17
2023-03-26T20:34:23.390Z,4.12
2023-03-26T20:37:01.201Z,4.00
2023-03-26T20:39:28.325Z,3.93
2023-03-26T20:41:56.354Z,3.85
2023-03-26T20:44:23.635Z,3.74
2023-03-26T20:46:50.973Z,3.67
2023-03-26T20:49:18.367Z,3.60
2023-03-26T20:51:45.653Z,3.59
2023-03-26T20:54:21.917Z,3.59
2023-03-26T20:56:49.505Z,3.55
2023-03-26T20:59:21.963Z,3.47
2023-03-26T21:01:49.937Z,3.44
2023-03-26T21:04:17.793Z,3.32
2023-03-26T21:06:45.369Z,3.40
2023-03-26T21:09:15.250Z,3.34
2023-03-26T21:12:07.003Z,3.26
2023-03-26T21:14:40.357Z,3.30
2023-03-26T21:17:19.160Z,3.24
2023-03-26T21:19:47.159Z,3.25
2023-03-26T21:22:36.192Z,3.30
2023-03-26T21:25:33.493Z,3.36
2023-03-26T21:28:19.440Z,3.49
2023-03-26T21:30:47.073Z,3.48
2023-03-26T21:33:13.910Z,3.47
2023-03-26T21:35:41.959Z,3.33
2023-03-26T21:38:09.947Z,3.45
2023-03-26T21:40:39.050Z,3.49
2023-03-26T21:43:07.488Z,3.46
2023-03-26T21:45:34.495Z,3.53
2023-03-26T21:48:01.531Z,3.54
2023-03-26T21:50:28.557Z,3.55
2023-03-26T21:52:56.631Z,3.57
2023-03-26T21:55:24.560Z,3.60
2023-03-26T21:58:17.441Z,3.70
2023-03-26T22:01:01.279Z,3.66
2023-03-26T22:03:41.677Z,3.71
2023-03-26T22:06:15.366Z,3.68
2023-03-26T22:08:42.797Z,3.72
2023-03-26T22:11:11.439Z,3.83
2023-03-26T22:13:38.938Z,3.75
2023-03-26T22:16:07.665Z,3.96
2023-03-26T22:18:35.219Z,3.70
2023-03-26T22:21:02.423Z,3.89
2023-03-26T22:23:36.103Z,4.14
2023-03-26T22:26:04.109Z,4.22
2023-03-26T22:28:30.751Z,4.31
2023-03-26T22:30:58.191Z,4.24
2023-03-26T22:33:25.154Z,4.02
2023-03-26T22:35:52.335Z,3.82
2023-03-26T22:38:19.245Z,3.96
2023-03-26T22:40:54.670Z,3.98
2023-03-26T22:43:21.513Z,3.88
2023-03-26T22:45:51.411Z,3.94
2023-03-26T22:48:18.325Z,3.94
2023-03-26T22:50:45.375Z,4.03
2023-03-26T22:53:12.094Z,3.96
2023-03-26T22:55:38.776Z,4.02
2023-03-26T22:58:05.422Z,3.98
2023-03-26T23:00:32.436Z,4.07
2023-03-26T23:03:00.616Z,4.11
2023-03-26T23:05:27.769Z,4.14
2023-03-26T23:07:54.461Z,4.14
2023-03-26T23:10:21.929Z,4.24
2023-03-26T23:12:49.653Z,4.23
2023-03-26T23:15:16.325Z,4.30
2023-03-26T23:17:43.146Z,4.05
2023-03-26T23:20:14.835Z,4.10
2023-03-26T23:22:42.853Z,4.03
2023-03-26T23:25:10.376Z,4.18
2023-03-26T23:27:37.422Z,4.36
2023-03-26T23:30:05.395Z,4.52
2023-03-26T23:32:32.946Z,4.52
2023-03-26T23:34:59.711Z,4.24
2023-03-26T23:37:26.736Z,4.16
2023-03-26T23:39:53.668Z,4.24
2023-03-26T23:42:28.678Z,4.10
2023-03-26T23:44:57.024Z,4.06
2023-03-26T23:47:24.200Z,4.11
2023-03-26T23:49:51.025Z,4.27
2023-03-26T23:52:18.089Z,4.12
2023-03-26T23:54:45.161Z,4.13
2023-03-26T23:57:11.910Z,4.26
2023-03-26T23:59:41.410Z,4.25
